createdAt,value
2019-02-21T00:00:45.459Z,51.93
2019-02-21T00:03:16.173Z,53.87
2019-02-21T00:05:46.919Z,52.63
2019-02-21T00:08:17.444Z,54.33
2019-02-21T00:10:48.189Z,55.73
2019-02-21T00:13:18.514Z,54.87
2019-02-21T00:15:49.003Z,55.57
2019-02-21T00:18:19.479Z,58.23
2019-02-21T00:20:50.356Z,57.77
2019-02-21T00:23:21.073Z,58.60
2019-02-21T00:25:51.634Z,62.70
2019-02-21T00:28:22.019Z,61.90
2019-02-21T00:30:52.434Z,62.27
2019-02-21T00:33:23.199Z,62.83
2019-02-21T00:35:53.858Z,64.70
2019-02-21T00:38:24.289Z,66.13
2019-02-21T00:40:55.034Z,65.40
2019-02-21T00:43:25.421Z,62.37
2019-02-21T00:45:55.952Z,64.90
2019-02-21T00:48:26.907Z,60.77
2019-02-21T00:50:57.420Z,62.97
2019-02-21T00:53:27.789Z,60.20
2019-02-21T00:55:58.319Z,60.13
2019-02-21T00:58:29.203Z,60.53
2019-02-21T01:00:59.696Z,63.97
2019-02-21T01:03:30.234Z,62.73
2019-02-21T01:06:01.009Z,61.10
2019-02-21T01:08:31.494Z,60.23
2019-02-21T01:11:02.244Z,63.00
2019-02-21T01:13:38.635Z,60.73
2019-02-21T01:16:09.122Z,60.17
2019-02-21T01:18:39.799Z,57.37
2019-02-21T01:21:10.139Z,61.00
2019-02-21T01:23:40.667Z,61.17
2019-02-21T01:26:11.129Z,60.10
2019-02-21T01:28:41.475Z,62.73
2019-02-21T01:31:12.119Z,60.90
2019-02-21T01:33:42.504Z,64.17
2019-02-21T01:36:13.078Z,67.40
2019-02-21T01:38:43.983Z,66.90
2019-02-21T01:41:14.360Z,67.37
2019-02-21T01:43:44.824Z,66.50
2019-02-21T01:46:15.441Z,64.73
2019-02-21T01:48:45.850Z,64.97
2019-02-21T01:51:16.189Z,64.10
2019-02-21T01:53:46.804Z,60.13
2019-02-21T01:56:17.314Z,56.23
2019-02-21T01:58:47.673Z,53.93
2019-02-21T02:01:18.189Z,57.30
2019-02-21T02:03:48.624Z,57.63
2019-02-21T02:06:19.293Z,57.00
2019-02-21T02:08:49.924Z,54.67
2019-02-21T02:11:20.299Z,54.83
2019-02-21T02:13:50.720Z,55.57
2019-02-21T02:16:21.505Z,55.53
2019-02-21T02:18:51.959Z,53.77
2019-02-21T02:21:22.294Z,56.57
2019-02-21T02:23:53.019Z,55.17
2019-02-21T02:26:23.401Z,52.53
2019-02-21T02:28:53.919Z,54.57
2019-02-21T02:31:24.351Z,51.17
2019-02-21T02:33:54.726Z,54.93
2019-02-21T02:36:25.329Z,56.97
2019-02-21T02:38:56.244Z,55.83
2019-02-21T02:41:26.683Z,55.87
2019-02-21T02:43:57.265Z,44.67
2019-02-21T02:46:27.840Z,47.67
2019-02-21T02:48:58.399Z,40.43
2019-02-21T02:51:28.820Z,37.77
2019-02-21T02:53:59.678Z,49.90
2019-02-21T02:56:29.996Z,53.63
2019-02-21T02:59:00.534Z,49.03
2019-02-21T03:01:34.903Z,48.70
2019-02-21T03:04:03.224Z,56.10
2019-02-21T03:06:33.699Z,53.87
2019-02-21T03:09:04.834Z,54.17
2019-02-21T03:11:35.280Z,60.00
2019-02-21T03:14:05.663Z,57.23
2019-02-21T03:16:36.154Z,63.87
2019-02-21T03:19:06.584Z,66.80
2019-02-21T03:21:37.004Z,67.37
2019-02-21T03:24:07.648Z,66.67
2019-02-21T03:26:38.039Z,72.23
2019-02-21T03:29:08.645Z,66.53
2019-02-21T03:31:53.355Z,69.40
2019-02-21T03:34:11.420Z,64.73
2019-02-21T03:36:41.837Z,55.30
2019-02-21T03:39:12.401Z,52.77
2019-02-21T03:41:43.064Z,47.43
2019-02-21T03:44:13.513Z,47.13
2019-02-21T03:46:44.019Z,45.00
2019-02-21T03:49:14.469Z,50.30
2019-02-21T03:51:44.834Z,56.00
2019-02-21T03:54:15.295Z,63.87
2019-02-21T03:56:45.690Z,62.27
2019-02-21T03:59:16.146Z,58.70
2019-02-21T04:01:46.729Z,45.47
2019-02-21T04:04:17.404Z,36.33
2019-02-21T04:06:47.759Z,40.20
2019-02-21T04:09:18.316Z,43.83
2019-02-21T04:11:48.717Z,39.97
2019-02-21T04:14:20.943Z,39.57
2019-02-21T04:16:51.469Z,42.00
2019-02-21T04:19:21.938Z,45.60
2019-02-21T04:21:52.323Z,37.27
2019-02-21T04:24:22.825Z,30.80
2019-02-21T04:26:53.300Z,38.10
2019-02-21T04:29:23.798Z,35.17
2019-02-21T04:31:54.554Z,32.27
2019-02-21T04:34:25.099Z,33.37
2019-02-21T04:36:55.453Z,35.60
2019-02-21T04:39:26.179Z,34.43
2019-02-21T04:41:56.614Z,34.23
2019-02-21T04:44:27.004Z,36.90
2019-02-21T04:46:57.569Z,40.57
2019-02-21T04:49:28.129Z,36.33
2019-02-21T04:51:58.778Z,36.80
2019-02-21T04:54:29.545Z,33.77
2019-02-21T04:57:00.391Z,38.57
2019-02-21T04:59:30.774Z,37.10
2019-02-21T05:02:01.315Z,36.57
2019-02-21T05:04:31.627Z,35.10
2019-02-21T05:07:02.321Z,38.87
2019-02-21T05:09:32.853Z,37.13
2019-02-21T05:12:03.315Z,39.90
2019-02-21T05:14:33.780Z,40.27
2019-02-21T05:17:04.370Z,40.43
2019-02-21T05:19:34.874Z,39.80
2019-02-21T05:22:05.329Z,41.33
2019-02-21T05:24:35.705Z,45.20
2019-02-21T05:27:10.484Z,43.07
2019-02-21T05:29:41.213Z,45.27
2019-02-21T05:32:40.900Z,45.90
2019-02-21T05:35:45.204Z,44.17
2019-02-21T05:38:30.499Z,45.97
2019-02-21T05:41:18.320Z,47.80
2019-02-21T05:43:58.788Z,49.77
2019-02-21T05:46:38.030Z,50.27
2019-02-21T05:49:25.559Z,52.40
2019-02-21T05:52:02.964Z,48.80
2019-02-21T05:54:50.568Z,51.30
2019-02-21T05:57:36.188Z,51.77
2019-02-21T06:00:14.291Z,52.70
2019-02-21T06:02:53.461Z,52.10
2019-02-21T06:05:41.996Z,51.97
2019-02-21T06:08:33.949Z,50.97
2019-02-21T06:11:18.003Z,52.67
2019-02-21T06:13:55.708Z,56.47
2019-02-21T06:16:36.145Z,55.13
2019-02-21T06:19:23.904Z,56.47
2019-02-21T06:22:31.044Z,55.47
2019-02-21T06:25:15.900Z,53.03
2019-02-21T06:28:05.979Z,58.27
2019-02-21T06:31:01.514Z,64.43
2019-02-21T06:33:31.974Z,66.90
2019-02-21T06:36:02.467Z,70.73
2019-02-21T06:38:33.789Z,77.70
2019-02-21T06:41:04.374Z,78.37
2019-02-21T06:43:34.914Z,81.17
2019-02-21T06:46:05.694Z,86.57
2019-02-21T06:48:36.106Z,83.47
2019-02-21T06:51:06.784Z,80.30
2019-02-21T06:53:37.575Z,80.20
2019-02-21T06:56:07.999Z,81.87
2019-02-21T06:58:38.474Z,79.70
2019-02-21T07:01:09.214Z,79.80
2019-02-21T07:03:39.755Z,76.50
2019-02-21T07:06:10.135Z,72.90
2019-02-21T07:08:40.655Z,70.50
2019-02-21T07:11:11.059Z,68.13
2019-02-21T07:13:41.442Z,71.93
2019-02-21T07:16:13.295Z,64.17
2019-02-21T07:18:43.775Z,62.10
2019-02-21T07:21:14.157Z,55.70
2019-02-21T07:23:44.759Z,60.40
2019-02-21T07:26:17.759Z,61.43
2019-02-21T07:28:48.359Z,55.20
2019-02-21T07:31:28.157Z,53.20
2019-02-21T07:33:51.059Z,50.33
2019-02-21T07:36:21.854Z,55.67
2019-02-21T07:38:53.572Z,54.77
2019-02-21T07:41:24.354Z,51.97
2019-02-21T07:43:55.034Z,52.17
2019-02-21T07:46:25.420Z,54.07
2019-02-21T07:48:55.869Z,55.47
2019-02-21T07:51:26.554Z,55.60
2019-02-21T07:53:57.009Z,60.83
2019-02-21T07:56:27.540Z,49.10
2019-02-21T07:58:58.259Z,47.97
2019-02-21T08:01:28.778Z,52.13
2019-02-21T08:03:59.158Z,56.20
2019-02-21T08:06:29.970Z,54.33
2019-02-21T08:09:00.519Z,54.57
2019-02-21T08:11:30.919Z,53.17
2019-02-21T08:14:01.349Z,57.10
2019-02-21T08:16:31.869Z,58.73
2019-02-21T08:19:02.409Z,53.17
2019-02-21T08:21:33.583Z,57.80
2019-02-21T08:24:04.169Z,59.47
2019-02-21T08:26:34.504Z,56.87
2019-02-21T08:29:06.211Z,61.80
2019-02-21T08:31:36.748Z,58.83
2019-02-21T08:34:11.219Z,53.93
2019-02-21T08:36:41.636Z,57.77
2019-02-21T08:39:12.314Z,51.87
2019-02-21T08:41:42.728Z,52.97
2019-02-21T08:44:13.160Z,50.93
2019-02-21T08:46:43.539Z,47.87
2019-02-21T08:49:14.074Z,51.00
2019-02-21T08:51:44.814Z,49.37
2019-02-21T08:54:15.329Z,51.23
2019-02-21T08:56:45.830Z,51.97
2019-02-21T08:59:16.219Z,56.83
2019-02-21T09:01:46.649Z,55.60
2019-02-21T09:04:26.878Z,52.37
2019-02-21T09:06:49.474Z,50.80
2019-02-21T09:09:20.014Z,52.40
2019-02-21T09:11:50.783Z,49.20
2019-02-21T09:14:21.367Z,48.60
2019-02-21T09:16:51.970Z,48.90
2019-02-21T09:19:22.554Z,52.57
2019-02-21T09:21:53.632Z,60.77
2019-02-21T09:24:37.442Z,57.87
2019-02-21T09:26:58.088Z,49.80
2019-02-21T09:29:28.465Z,49.80
2019-02-21T09:31:58.964Z,50.00
2019-02-21T09:34:29.594Z,49.53
2019-02-21T09:37:00.074Z,43.87
2019-02-21T09:39:30.659Z,44.90
2019-02-21T09:42:01.059Z,45.77
2019-02-21T09:44:31.539Z,43.17
2019-02-21T09:47:01.976Z,44.47
2019-02-21T09:49:32.584Z,47.07
2019-02-21T09:52:03.061Z,48.20
2019-02-21T09:54:33.519Z,47.40
2019-02-21T09:57:12.718Z,44.80
2019-02-21T09:59:36.270Z,48.73
2019-02-21T10:02:06.909Z,48.73
2019-02-21T10:04:37.464Z,76.17
2019-02-21T10:07:07.978Z,46.97
2019-02-21T10:09:38.519Z,49.40
2019-02-21T10:12:09.165Z,51.27
2019-02-21T10:14:39.534Z,49.03
2019-02-21T10:17:10.154Z,56.73
2019-02-21T10:19:40.634Z,59.90
2019-02-21T10:22:10.949Z,57.93
2019-02-21T10:24:41.554Z,52.50
2019-02-21T10:27:11.924Z,59.47
2019-02-21T10:29:42.344Z,50.37
2019-02-21T10:32:12.959Z,48.50
2019-02-21T10:34:43.626Z,51.70
2019-02-21T10:37:14.074Z,46.27
2019-02-21T10:39:44.689Z,51.33
2019-02-21T10:42:15.264Z,43.37
2019-02-21T10:44:45.769Z,40.93
2019-02-21T10:47:16.224Z,43.37
2019-02-21T10:49:47.005Z,41.67
2019-02-21T10:52:17.854Z,43.50
2019-02-21T10:54:48.427Z,45.17
2019-02-21T10:57:19.299Z,43.23
2019-02-21T10:59:49.854Z,44.80
2019-02-21T11:02:20.493Z,45.10
2019-02-21T11:04:54.930Z,43.13
2019-02-21T11:07:23.657Z,46.60
2019-02-21T11:09:54.325Z,43.10
2019-02-21T11:12:25.034Z,42.77
2019-02-21T11:14:55.497Z,43.93
2019-02-21T11:17:26.019Z,41.43
2019-02-21T11:19:56.917Z,43.07
2019-02-21T11:22:27.434Z,42.43
2019-02-21T11:24:58.339Z,41.63
2019-02-21T11:27:28.929Z,42.80
2019-02-21T11:29:59.319Z,41.60
2019-02-21T11:32:29.802Z,42.47
2019-02-21T11:35:06.234Z,40.13
2019-02-21T11:37:42.674Z,43.27
2019-02-21T11:40:05.589Z,40.70
2019-02-21T11:42:36.669Z,41.00
2019-02-21T11:45:07.721Z,42.50
2019-02-21T11:47:38.109Z,41.70
2019-02-21T11:50:09.114Z,41.30
2019-02-21T11:52:39.548Z,43.20
2019-02-21T11:55:11.384Z,40.90
2019-02-21T11:57:41.897Z,42.70
2019-02-21T12:00:15.910Z,40.33
2019-02-21T12:02:46.514Z,41.00
2019-02-21T12:05:17.962Z,40.07
2019-02-21T12:07:48.986Z,38.93
2019-02-21T12:10:19.523Z,41.37
2019-02-21T12:12:50.094Z,40.70
2019-02-21T12:15:20.469Z,43.63
2019-02-21T12:17:51.008Z,44.83
2019-02-21T12:20:21.609Z,42.90
2019-02-21T12:22:51.992Z,41.10
2019-02-21T12:25:22.726Z,43.60
2019-02-21T12:27:53.178Z,41.40
2019-02-21T12:30:23.939Z,44.23
2019-02-21T12:32:54.614Z,40.77
2019-02-21T12:35:29.739Z,43.37
2019-02-21T12:37:57.624Z,43.80
2019-02-21T12:40:28.619Z,40.37
2019-02-21T12:42:59.179Z,41.63
2019-02-21T12:45:30.221Z,43.63
2019-02-21T12:48:01.332Z,41.90
2019-02-21T12:50:43.507Z,42.30
2019-02-21T12:53:04.825Z,44.37
2019-02-21T12:55:35.479Z,39.97
2019-02-21T12:58:05.874Z,42.83
2019-02-21T13:00:36.783Z,43.87
2019-02-21T13:03:07.239Z,43.60
2019-02-21T13:05:41.175Z,43.53
2019-02-21T13:08:10.131Z,42.00
2019-02-21T13:10:40.679Z,44.90
2019-02-21T13:13:11.057Z,46.17
2019-02-21T13:15:41.794Z,47.73
2019-02-21T13:18:15.779Z,46.60
2019-02-21T13:20:44.225Z,47.23
2019-02-21T13:23:14.804Z,48.43
2019-02-21T13:25:45.228Z,47.77
2019-02-21T13:28:15.639Z,46.03
2019-02-21T13:30:46.533Z,47.50
2019-02-21T13:33:17.768Z,45.90
2019-02-21T13:35:52.577Z,45.03
2019-02-21T13:38:21.131Z,44.07
2019-02-21T13:40:52.409Z,42.63
2019-02-21T13:43:23.185Z,43.47
2019-02-21T13:45:53.806Z,44.90
2019-02-21T13:48:24.394Z,43.80
2019-02-21T13:50:55.304Z,40.00
2019-02-21T13:53:25.794Z,40.10
2019-02-21T13:55:57.126Z,42.03
2019-02-21T13:58:27.859Z,40.10
2019-02-21T14:00:58.479Z,40.63
2019-02-21T14:03:29.256Z,38.53
2019-02-21T14:06:03.494Z,38.93
2019-02-21T14:08:32.160Z,40.40
2019-02-21T14:11:03.020Z,37.10
2019-02-21T14:13:33.811Z,40.47
2019-02-21T14:16:04.495Z,37.83
2019-02-21T14:18:34.899Z,37.57
2019-02-21T14:21:05.596Z,37.83
2019-02-21T14:23:36.200Z,36.17
2019-02-21T14:26:06.794Z,32.73
2019-02-21T14:28:37.541Z,32.13
2019-02-21T14:31:08.206Z,34.50
2019-02-21T14:33:38.860Z,33.13
2019-02-21T14:36:15.940Z,34.17
2019-02-21T14:38:41.785Z,33.50
2019-02-21T14:41:12.783Z,31.30
2019-02-21T14:43:43.379Z,32.50
2019-02-21T14:46:13.929Z,32.33
2019-02-21T14:48:44.559Z,32.23
2019-02-21T14:51:15.059Z,27.13
2019-02-21T14:53:46.544Z,29.73
2019-02-21T14:56:17.134Z,30.40
2019-02-21T14:58:47.757Z,29.37
2019-02-21T15:01:18.194Z,27.63
2019-02-21T15:03:49.404Z,28.43
2019-02-21T15:06:27.108Z,28.53
2019-02-21T15:08:52.197Z,32.43
2019-02-21T15:11:22.949Z,33.10
2019-02-21T15:13:53.684Z,29.10
2019-02-21T15:16:24.462Z,29.83
2019-02-21T15:18:55.443Z,29.30
2019-02-21T15:21:26.081Z,29.57
2019-02-21T15:23:56.712Z,28.33
2019-02-21T15:26:27.279Z,28.53
2019-02-21T15:28:59.978Z,28.83
2019-02-21T15:31:30.764Z,29.97
2019-02-21T15:34:01.279Z,30.10
2019-02-21T15:36:38.270Z,30.07
2019-02-21T15:39:05.434Z,30.20
2019-02-21T15:41:36.404Z,28.63
2019-02-21T15:44:07.127Z,29.27
2019-02-21T15:46:38.190Z,30.83
2019-02-21T15:49:09.273Z,30.03
2019-02-21T15:51:39.969Z,29.80
2019-02-21T15:54:12.533Z,31.73
2019-02-21T15:56:43.314Z,29.67
2019-02-21T15:59:14.605Z,31.17
2019-02-21T16:01:47.827Z,32.83
2019-02-21T16:04:18.299Z,33.40
2019-02-21T16:06:51.689Z,33.43
2019-02-21T16:09:21.909Z,31.30
2019-02-21T16:11:52.500Z,31.87
2019-02-21T16:14:23.034Z,32.87
2019-02-21T16:16:53.574Z,33.17
2019-02-21T16:19:24.069Z,32.73
2019-02-21T16:21:54.554Z,30.30
2019-02-21T16:24:25.019Z,31.57
2019-02-21T16:26:55.459Z,31.63
2019-02-21T16:29:26.119Z,31.40
2019-02-21T16:31:56.954Z,33.03
2019-02-21T16:34:27.580Z,32.17
2019-02-21T16:37:02.443Z,30.87
2019-02-21T16:39:30.799Z,31.37
2019-02-21T16:42:01.374Z,31.63
2019-02-21T16:44:31.916Z,33.83
2019-02-21T16:47:02.924Z,33.60
2019-02-21T16:49:33.517Z,33.70
2019-02-21T16:52:03.894Z,33.27
2019-02-21T16:54:34.634Z,33.87
2019-02-21T16:57:05.283Z,35.20
2019-02-21T16:59:36.055Z,32.93
2019-02-21T17:02:07.284Z,33.67
2019-02-21T17:04:38.004Z,35.13
2019-02-21T17:07:14.379Z,32.77
2019-02-21T17:09:41.562Z,33.67
2019-02-21T17:12:12.045Z,36.00
2019-02-21T17:14:43.094Z,34.70
2019-02-21T17:17:14.114Z,33.37
2019-02-21T17:19:44.733Z,36.93
2019-02-21T17:22:15.610Z,37.73
2019-02-21T17:24:46.374Z,35.57
2019-02-21T17:27:17.059Z,36.37
2019-02-21T17:29:47.937Z,37.83
2019-02-21T17:32:19.394Z,36.30
2019-02-21T17:34:50.024Z,37.70
2019-02-21T17:37:24.959Z,37.23
2019-02-21T17:39:53.314Z,39.53
2019-02-21T17:42:24.053Z,37.07
2019-02-21T17:44:54.699Z,40.27
2019-02-21T17:47:25.542Z,37.57
2019-02-21T17:49:56.325Z,37.53
2019-02-21T17:52:27.039Z,37.43
2019-02-21T17:54:57.664Z,33.40
2019-02-21T17:57:28.309Z,40.57
2019-02-21T18:00:00.346Z,39.30
2019-02-21T18:02:31.398Z,38.53
2019-02-21T18:05:01.994Z,37.43
2019-02-21T18:07:36.345Z,40.27
2019-02-21T18:10:04.939Z,37.03
2019-02-21T18:12:35.483Z,37.00
2019-02-21T18:15:06.364Z,40.50
2019-02-21T18:17:37.480Z,38.53
2019-02-21T18:20:08.669Z,37.40
2019-02-21T18:22:39.045Z,33.70
2019-02-21T18:25:16.099Z,37.03
2019-02-21T18:27:46.798Z,37.77
2019-02-21T18:30:17.570Z,38.83
2019-02-21T18:32:48.226Z,39.20
2019-02-21T18:35:18.750Z,39.23
2019-02-21T18:37:49.349Z,37.83
2019-02-21T18:40:21.026Z,41.03
2019-02-21T18:42:52.104Z,39.57
2019-02-21T18:45:22.940Z,41.07
2019-02-21T18:47:53.704Z,39.13
2019-02-21T18:50:24.399Z,37.73
2019-02-21T18:52:54.959Z,39.97
2019-02-21T18:55:25.994Z,36.97
2019-02-21T18:57:57.098Z,38.83
2019-02-21T19:00:27.919Z,41.40
2019-02-21T19:02:58.871Z,42.57
2019-02-21T19:05:35.800Z,42.73
2019-02-21T19:08:05.494Z,40.17
2019-02-21T19:10:34.478Z,40.10
2019-02-21T19:13:07.787Z,41.07
2019-02-21T19:15:38.831Z,41.30
2019-02-21T19:18:09.374Z,41.57
2019-02-21T19:20:40.004Z,44.33
2019-02-21T19:23:10.646Z,43.70
2019-02-21T19:25:41.204Z,46.87
2019-02-21T19:28:11.758Z,41.20
2019-02-21T19:31:03.929Z,40.27
2019-02-21T19:33:34.604Z,43.93
2019-02-21T19:36:05.379Z,46.00
2019-02-21T19:38:36.405Z,49.50
2019-02-21T19:41:07.316Z,45.57
2019-02-21T19:43:38.144Z,47.03
2019-02-21T19:46:08.834Z,49.10
2019-02-21T19:48:39.759Z,49.63
2019-02-21T19:51:10.514Z,49.17
2019-02-21T19:53:41.884Z,59.60
2019-02-21T19:56:12.614Z,61.17
2019-02-21T19:58:43.214Z,64.63
2019-02-21T20:01:14.341Z,63.33
2019-02-21T20:03:45.434Z,64.20
2019-02-21T20:06:16.169Z,63.10
2019-02-21T20:08:47.180Z,60.90
2019-02-21T20:11:17.735Z,46.33
2019-02-21T20:13:48.467Z,46.30
2019-02-21T20:16:19.486Z,49.60
2019-02-21T20:18:50.073Z,45.27
2019-02-21T20:21:21.055Z,48.53
2019-02-21T20:23:52.549Z,51.23
2019-02-21T20:26:23.484Z,52.40
2019-02-21T20:28:55.119Z,49.27
2019-02-21T20:31:26.500Z,47.00
2019-02-21T20:33:57.351Z,48.47
2019-02-21T20:36:28.099Z,46.20
2019-02-21T20:38:59.204Z,51.33
2019-02-21T20:41:30.079Z,54.13
2019-02-21T20:44:00.769Z,53.43
2019-02-21T20:46:31.740Z,50.53
2019-02-21T20:49:03.254Z,49.30
2019-02-21T20:51:34.384Z,43.60
2019-02-21T20:54:05.766Z,43.80
2019-02-21T20:56:36.800Z,42.47
2019-02-21T20:59:07.649Z,43.23
2019-02-21T21:01:38.618Z,43.17
2019-02-21T21:04:09.284Z,42.33
2019-02-21T21:06:39.884Z,38.70
2019-02-21T21:09:10.700Z,39.47
2019-02-21T21:11:41.575Z,37.33
2019-02-21T21:14:12.399Z,40.87
2019-02-21T21:16:43.374Z,44.27
2019-02-21T21:19:13.923Z,47.20
2019-02-21T21:21:44.570Z,48.40
2019-02-21T21:24:15.210Z,46.27
2019-02-21T21:26:46.837Z,45.57
2019-02-21T21:29:17.259Z,48.60
2019-02-21T21:31:48.079Z,44.67
2019-02-21T21:34:18.580Z,42.77
2019-02-21T21:36:49.294Z,51.20
2019-02-21T21:39:20.095Z,49.87
2019-02-21T21:41:50.640Z,52.97
2019-02-21T21:44:21.310Z,49.60
2019-02-21T21:46:52.094Z,40.80
2019-02-21T21:49:22.814Z,53.67
2019-02-21T21:51:53.604Z,50.63
2019-02-21T21:54:24.404Z,49.60
2019-02-21T21:56:55.044Z,54.27
2019-02-21T21:59:25.654Z,55.97
2019-02-21T22:01:56.197Z,53.03
2019-02-21T22:04:26.769Z,54.63
2019-02-21T22:06:57.514Z,59.53
2019-02-21T22:09:28.161Z,55.53
2019-02-21T22:11:58.758Z,57.57
2019-02-21T22:14:29.222Z,55.23
2019-02-21T22:17:00.024Z,56.53
2019-02-21T22:19:30.379Z,51.97
2019-02-21T22:22:01.092Z,52.90
2019-02-21T22:24:31.700Z,52.03
2019-02-21T22:27:02.219Z,41.60
2019-02-21T22:29:32.589Z,41.37
2019-02-21T22:32:03.629Z,35.77
2019-02-21T22:34:34.504Z,33.63
2019-02-21T22:37:05.282Z,33.50
2019-02-21T22:39:36.099Z,33.40
2019-02-21T22:42:06.699Z,35.03
2019-02-21T22:44:37.195Z,32.47
2019-02-21T22:47:08.012Z,34.37
2019-02-21T22:49:38.730Z,34.00
2019-02-21T22:52:09.568Z,37.87
2019-02-21T22:54:40.159Z,35.73
2019-02-21T22:57:10.664Z,34.63
2019-02-21T22:59:41.180Z,36.10
2019-02-21T23:02:12.081Z,33.67
2019-02-21T23:04:57.178Z,35.40
2019-02-21T23:08:15.939Z,37.50
2019-02-21T23:10:46.499Z,36.30
2019-02-21T23:13:17.004Z,34.33
2019-02-21T23:15:47.771Z,35.17
2019-02-21T23:18:18.261Z,34.73
2019-02-21T23:20:48.744Z,31.63
2019-02-21T23:23:19.419Z,34.03
2019-02-21T23:25:49.850Z,33.53
2019-02-21T23:28:20.198Z,32.27
2019-02-21T23:30:50.959Z,32.30
2019-02-21T23:33:21.892Z,33.77
2019-02-21T23:35:52.394Z,32.67
2019-02-21T23:38:23.514Z,35.43
2019-02-21T23:40:53.940Z,33.07
2019-02-21T23:43:24.503Z,33.17
2019-02-21T23:45:55.490Z,32.67
2019-02-21T23:48:26.143Z,34.13
2019-02-21T23:50:56.640Z,35.00
2019-02-21T23:53:27.539Z,34.73
2019-02-21T23:55:57.933Z,35.47
2019-02-21T23:58:28.398Z,38.27
